• Join FlightAware (Why Join?)
  • Login
  • US Flag 
07:52PM EDT


 

Airport Tracker/Info


-or-


 

Live Flight TrackerFlight Track Log ✈ EJA658 ✈ 20-Apr-2013 ✈ KHPN - KBDL

Flight Track Log - Related Links

Times and Time Zones

All times are in EDT time to prevent confusion due to time zone crossing. See the EJA658 flight status page for this flight to view local times or setup timezone preferences in your user account.

Time Position Orientation Groundspeed Altitude Reporting Facility
EDT Latitude Longitude Course Direction KTS MPH feet Rate Location/Type
01:48PM 41.0833 -73.7500 288° West 181 208 2,800  Level New York TRACON
01:49PM 41.1000 -73.8167 288° West 199 229 6,800 3,420 Climbing New York TRACON
01:50PM 41.1500 -73.8000 14° North 296 341 9,700 1,560 Climbing New York TRACON
01:51PM 41.2167 -73.7000 48° Northeast 321 369 10,100 180 Climbing New York TRACON
01:52PM 41.2667 -73.6167 51° Northeast 309 356 10,200  Climbing New York TRACON
01:53PM 41.3167 -73.5333 51° Northeast 306 352 10,200  Level New York TRACON
01:54PM 41.3833 -73.4500 43° Northeast 308 354 10,200 -120 Level New York TRACON
01:55PM 41.4231 -73.3950 46° Northeast 311 358 10,000 -180 Descending Boston Center
01:55PM 41.4694 -73.3294 47° Northeast 310 357 10,000  Level Boston Center
01:56PM 41.5242 -73.2581 44° Northeast 311 358 10,000  Level Boston Center
01:57PM 41.5853 -73.1756 45° Northeast 312 359 10,000 -300 Level Boston Center
01:58PM 41.6461 -73.0792 50° Northeast 314 361 9,500 -1,200 Descending Boston Center
01:59PM 41.6925 -72.9822 57° Northeast 311 358 7,600 -1,920 Descending Boston Center
02:00PM 41.7347 -72.8908 58° Northeast 280 322 5,700 -1,200 Descending Boston Center
02:01PM 41.7725 -72.8131 57° Northeast 245 282 5,300 -1,260 Descending Boston Center
02:02PM 41.8103 -72.7381 56° Northeast 245 282 3,200 -1,500 Descending Boston Center
02:03PM 41.8375 -72.6714 61° Northeast 209 241 2,300 -840 Descending Boston Center
02:04PM 41.8750 -72.6325 38° Northeast 173 199 1,600 -840 Descending Boston Center
02:05PM 41.9083 -72.6578 331° Northwest 125 144 700 -900 Descending Boston Center
02:07PM 41.9333 -72.6833 45° Northeast  Level FlightAware Approximate